createdAt,value
2019-01-31T00:01:31.614Z,9.60
2019-01-31T00:41:37.328Z,8.77
2019-01-31T00:46:58.771Z,4.53
2019-01-31T00:52:44.473Z,5.03
2019-01-31T00:58:05.424Z,8.07
2019-01-31T01:03:42.165Z,4.93
2019-01-31T01:09:16.323Z,6.17
2019-01-31T01:14:30.293Z,8.60
2019-01-31T01:20:13.094Z,8.40
2019-01-31T01:25:53.293Z,9.17
2019-01-31T01:31:26.729Z,5.93
2019-01-31T01:36:50.273Z,5.77
2019-01-31T01:42:26.288Z,8.27
2019-01-31T01:47:39.790Z,8.77
2019-01-31T01:53:26.911Z,7.77
2019-01-31T01:58:47.666Z,13.40
2019-01-31T02:03:58.172Z,13.03
2019-01-31T02:09:51.247Z,9.37
2019-01-31T02:15:29.331Z,10.83
2019-01-31T02:21:24.973Z,13.83
2019-01-31T02:27:20.985Z,14.60
2019-01-31T02:32:53.338Z,18.30
2019-01-31T02:38:49.927Z,16.70
2019-01-31T02:44:26.415Z,20.37
2019-01-31T02:49:40.336Z,20.97
2019-01-31T02:55:14.305Z,29.40
2019-01-31T03:01:05.943Z,34.70
2019-01-31T03:06:38.220Z,40.27
2019-01-31T03:12:30.447Z,39.23
2019-01-31T03:17:55.889Z,37.17
2019-01-31T03:24:01.066Z,44.93
2019-01-31T03:29:30.769Z,33.33
2019-01-31T03:35:19.493Z,36.73
2019-01-31T03:41:14.434Z,40.90
2019-01-31T03:47:06.778Z,42.80
2019-01-31T03:52:45.236Z,40.33
2019-01-31T03:58:18.962Z,40.63
2019-01-31T04:03:34.454Z,42.10
2019-01-31T04:08:36.452Z,34.53
2019-01-31T04:13:38.846Z,35.07
2019-01-31T04:18:43.947Z,40.23
2019-01-31T04:23:46.071Z,34.40
2019-01-31T04:28:48.063Z,38.23
2019-01-31T04:33:50.520Z,33.20
2019-01-31T04:38:52.532Z,43.00
2019-01-31T04:43:54.833Z,45.40
2019-01-31T04:48:56.903Z,46.67
2019-01-31T04:53:58.917Z,48.87
2019-01-31T04:59:00.970Z,45.87
2019-01-31T05:04:02.955Z,50.60
2019-01-31T05:09:06.435Z,54.53
2019-01-31T05:14:14.631Z,43.73
2019-01-31T05:19:16.758Z,44.63
2019-01-31T05:24:18.784Z,60.57
2019-01-31T05:29:23.584Z,53.23
2019-01-31T05:34:25.836Z,53.13
2019-01-31T05:39:27.924Z,56.17
2019-01-31T05:44:30.490Z,71.97
2019-01-31T05:49:32.504Z,47.97
2019-01-31T05:54:34.585Z,53.63
2019-01-31T05:59:36.608Z,54.97
2019-01-31T06:04:38.665Z,64.60
2019-01-31T06:09:40.668Z,58.73
2019-01-31T06:14:42.980Z,63.67
2019-01-31T06:19:48.383Z,53.97
2019-01-31T06:24:50.563Z,58.10
2019-01-31T06:29:52.606Z,59.77
2019-01-31T06:34:54.669Z,74.07
2019-01-31T06:39:56.765Z,65.23
2019-01-31T06:44:59.073Z,68.63
2019-01-31T06:50:01.075Z,58.73
2019-01-31T06:55:05.212Z,63.50
2019-01-31T07:00:10.777Z,61.37
2019-01-31T07:05:12.956Z,65.67
2019-01-31T07:10:26.336Z,63.60
2019-01-31T07:15:30.713Z,64.73
2019-01-31T07:20:32.717Z,70.60
2019-01-31T07:25:34.804Z,68.67
2019-01-31T07:30:36.802Z,90.03
2019-01-31T07:35:39.180Z,93.63
2019-01-31T07:40:41.110Z,200.43
2019-01-31T07:45:43.169Z,162.77
2019-01-31T07:50:45.341Z,91.47
2019-01-31T07:55:47.656Z,91.60
2019-01-31T08:00:51.979Z,79.07
2019-01-31T08:05:56.606Z,79.07
2019-01-31T08:10:58.731Z,67.97
2019-01-31T08:16:01.330Z,80.50
2019-01-31T08:21:03.417Z,90.03
2019-01-31T08:26:05.750Z,86.17
2019-01-31T08:31:07.766Z,102.50
2019-01-31T08:36:10.889Z,90.87
2019-01-31T08:41:12.961Z,107.10
2019-01-31T08:46:15.121Z,97.87
2019-01-31T08:51:17.126Z,119.70
2019-01-31T08:56:19.475Z,105.30
2019-01-31T09:01:26.254Z,128.03
2019-01-31T09:06:28.312Z,120.23
2019-01-31T09:11:30.336Z,139.07
2019-01-31T09:16:33.992Z,95.53
2019-01-31T09:21:49.032Z,71.63
2019-01-31T09:27:35.804Z,103.00
2019-01-31T09:33:18.355Z,87.93
2019-01-31T09:39:05.224Z,89.40
2019-01-31T09:44:44.887Z,78.73
2019-01-31T09:50:13.914Z,82.33
2019-01-31T09:55:44.783Z,75.97
2019-01-31T10:01:31.391Z,74.70
2019-01-31T10:06:47.240Z,88.80
2019-01-31T10:12:52.278Z,77.07
2019-01-31T10:18:18.557Z,91.53
2019-01-31T10:23:50.075Z,105.27
2019-01-31T10:29:11.988Z,112.47
2019-01-31T10:34:39.957Z,99.73
2019-01-31T10:40:35.911Z,100.53
2019-01-31T10:45:59.597Z,78.37
2019-01-31T10:51:29.711Z,94.47
2019-01-31T10:57:18.456Z,112.27
2019-01-31T11:02:57.351Z,98.10
2019-01-31T11:08:38.262Z,98.93
2019-01-31T11:14:08.544Z,118.17
2019-01-31T11:19:38.665Z,115.47
2019-01-31T11:24:54.257Z,121.43
2019-01-31T11:30:20.927Z,100.00
2019-01-31T11:35:45.882Z,92.63
2019-01-31T11:41:29.838Z,91.47
2019-01-31T11:47:03.857Z,101.33
2019-01-31T11:52:38.914Z,98.17
2019-01-31T11:58:25.262Z,106.13
2019-01-31T12:03:30.215Z,91.60
2019-01-31T12:08:32.227Z,88.73
2019-01-31T12:13:34.445Z,83.13
2019-01-31T12:18:36.462Z,96.93
2019-01-31T12:23:38.699Z,90.50
2019-01-31T12:28:40.725Z,83.17
2019-01-31T12:33:42.959Z,82.57
2019-01-31T12:38:44.956Z,71.90
2019-01-31T12:43:50.178Z,75.60
2019-01-31T12:48:52.300Z,77.07
2019-01-31T12:53:55.080Z,74.00
2019-01-31T12:58:57.138Z,70.57
2019-01-31T13:03:59.215Z,77.47
2019-01-31T13:09:01.305Z,69.00
2019-01-31T13:14:03.538Z,72.77
2019-01-31T13:19:05.639Z,68.00
2019-01-31T13:24:07.736Z,63.93
2019-01-31T13:29:09.842Z,66.97
2019-01-31T13:34:12.059Z,70.93
2019-01-31T13:39:15.192Z,68.93
2019-01-31T13:44:17.252Z,63.63
2019-01-31T13:49:19.371Z,69.17
2019-01-31T13:54:21.582Z,69.80
2019-01-31T13:59:23.668Z,63.20
2019-01-31T14:04:29.709Z,68.43
2019-01-31T14:09:34.317Z,66.70
2019-01-31T14:14:39.468Z,66.30
2019-01-31T14:19:41.465Z,64.93
2019-01-31T14:24:43.926Z,72.83
2019-01-31T14:29:46.033Z,71.27
2019-01-31T14:34:48.141Z,83.20
2019-01-31T14:39:50.202Z,71.40
2019-01-31T14:44:55.030Z,83.63
2019-01-31T14:49:57.575Z,73.57
2019-01-31T14:55:04.459Z,69.30
2019-01-31T15:00:10.086Z,74.47
2019-01-31T15:05:13.308Z,73.47
2019-01-31T15:10:17.668Z,94.30
2019-01-31T15:15:20.788Z,82.30
2019-01-31T15:20:37.589Z,82.90
2019-01-31T15:25:34.067Z,88.83
2019-01-31T15:30:37.036Z,80.20
2019-01-31T15:35:39.326Z,76.80
2019-01-31T15:40:43.362Z,66.37
2019-01-31T15:45:45.613Z,60.03
2019-01-31T15:50:49.342Z,67.30
2019-01-31T15:55:51.455Z,56.57
2019-01-31T16:00:55.195Z,84.80
2019-01-31T16:05:57.251Z,60.83
2019-01-31T16:10:59.359Z,61.60
2019-01-31T16:16:01.496Z,63.10
2019-01-31T16:21:03.753Z,60.50
2019-01-31T16:26:08.715Z,54.73
2019-01-31T16:31:11.954Z,54.17
2019-01-31T16:36:13.984Z,54.77
2019-01-31T16:41:17.418Z,71.00
2019-01-31T16:46:19.849Z,63.00
2019-01-31T16:51:21.871Z,59.10
2019-01-31T16:56:24.250Z,64.40
2019-01-31T17:01:26.297Z,69.60
2019-01-31T17:06:28.342Z,64.93
2019-01-31T17:11:31.848Z,90.67
2019-01-31T17:16:34.124Z,76.27
2019-01-31T17:21:36.292Z,82.20
2019-01-31T17:26:39.438Z,61.67
2019-01-31T17:31:41.667Z,63.40
2019-01-31T17:36:46.848Z,83.62
2019-01-31T17:41:50.045Z,76.10
2019-01-31T17:46:52.124Z,74.53
2019-01-31T17:51:54.127Z,69.50
2019-01-31T17:56:56.464Z,75.07
2019-01-31T18:01:58.483Z,84.97
2019-01-31T18:07:01.993Z,80.20
2019-01-31T18:12:04.021Z,77.63
2019-01-31T18:17:06.521Z,81.23
2019-01-31T18:22:08.534Z,81.40
2019-01-31T18:27:10.766Z,91.73
2019-01-31T18:32:12.795Z,78.63
2019-01-31T18:37:17.423Z,80.10
2019-01-31T18:42:19.999Z,86.73
2019-01-31T18:47:22.005Z,75.47
2019-01-31T18:52:25.398Z,84.77
2019-01-31T18:57:29.728Z,96.67
2019-01-31T19:02:31.716Z,88.60
2019-01-31T19:07:33.739Z,87.60
2019-01-31T19:12:35.766Z,82.67
2019-01-31T19:17:37.942Z,106.05
2019-01-31T19:22:54.622Z,93.43
2019-01-31T19:27:57.846Z,79.30
2019-01-31T19:33:00.398Z,91.70
2019-01-31T19:38:02.724Z,91.70
2019-01-31T19:43:08.039Z,95.83
2019-01-31T19:48:11.697Z,104.03
2019-01-31T19:53:13.730Z,98.43
2019-01-31T19:58:15.808Z,99.30
2019-01-31T20:03:21.090Z,102.60
2019-01-31T20:08:26.038Z,107.27
2019-01-31T20:13:28.272Z,98.30
2019-01-31T20:18:36.866Z,109.93
2019-01-31T20:23:43.209Z,104.57
2019-01-31T20:28:46.989Z,108.83
2019-01-31T20:33:49.080Z,100.87
2019-01-31T20:39:10.393Z,91.27
2019-01-31T20:44:12.805Z,92.80
2019-01-31T20:49:18.461Z,91.27
2019-01-31T20:54:20.609Z,98.50
2019-01-31T20:59:22.621Z,80.10
2019-01-31T21:04:24.873Z,86.80
2019-01-31T21:09:28.749Z,81.90
2019-01-31T21:14:30.794Z,82.83
2019-01-31T21:19:32.869Z,78.63
2019-01-31T21:24:34.915Z,84.73
2019-01-31T21:29:38.750Z,86.17
2019-01-31T21:34:41.238Z,84.83
2019-01-31T21:39:43.293Z,85.20
2019-01-31T21:44:54.324Z,83.53
2019-01-31T21:49:58.769Z,85.47
2019-01-31T21:55:01.055Z,83.67
2019-01-31T22:00:06.016Z,87.00
2019-01-31T22:05:08.731Z,92.10
2019-01-31T22:10:12.997Z,94.40
2019-01-31T22:15:22.772Z,103.87
2019-01-31T22:20:25.292Z,105.13
2019-01-31T22:25:27.347Z,104.23
2019-01-31T22:30:35.032Z,107.93
2019-01-31T22:35:37.025Z,95.77
2019-01-31T22:40:39.253Z,92.27
2019-01-31T22:45:42.851Z,100.43
2019-01-31T22:50:44.946Z,93.97
2019-01-31T22:55:47.131Z,93.03
2019-01-31T23:01:26.870Z,97.50
2019-01-31T23:06:29.122Z,97.20
2019-01-31T23:11:33.893Z,95.27
2019-01-31T23:16:36.219Z,94.63
2019-01-31T23:21:41.066Z,100.77
2019-01-31T23:26:43.119Z,101.90
2019-01-31T23:31:45.172Z,97.53
2019-01-31T23:36:57.787Z,97.07
2019-01-31T23:41:59.900Z,102.53
2019-01-31T23:47:02.088Z,92.27
2019-01-31T23:52:04.137Z,89.47
2019-01-31T23:57:06.234Z,88.80
